Birmingham-Shuttlesworth International Airport Airport (BHM)

Airport Diagram
Current Weather/Forecast (VFR Conditions)
METAR KBHM 241353Z 00000KT 7SM SCT150 BKN250 28/20 A2997 RMK AO2 SLP140 T02780200
TAF KBHM 241129Z 2412/2512 24006KT P6SM BKN060 FM241800 24008KT P6SM VCSH BKN060 PROB30 2421/2501 4SM TSRA BR OVC025CB FM250100 16005KT 6SM SHRA BR BKN040 PROB30 2501/2503 4SM TSRA BR OVC025CB FM250600 16005KT P6SM BKN050

All Charts
General
Chart Name Download
AIRPORT DIAGRAM
TAKEOFF MINIMUMS
ALTERNATE MINIMUMS
HOT SPOT
LAHSO

Departures
Chart Name Download
BIRMINGHAM EIGHT
BIRMINGHAM EIGHT, CONT.1

Approaches
Chart Name Download
ILS OR LOC RWY 06
ILS OR LOC RWY 24
ILS RWY 06 (CAT II)
ILS RWY 24 (SA CAT II)
RNAV (RNP) Z RWY 06
RNAV (RNP) Z RWY 24
RNAV (GPS) RWY 18
RNAV (GPS) RWY 36
RNAV (GPS) Y RWY 06
RNAV (GPS) Y RWY 24
LOC RWY 18


Inbound Traffic (Arrivals)
Callsign Aircraft Rules Departure Route
DAL297 B738/L IFR KMIA HURCN4 SMELZ Q116 JAWJA DEEDA WANDS

Outbound Traffic (Departures)

No outbound traffic.